Time;durP1;ratioP1;P1;durP2;ratioP2;P2;SDS_P1;SDS_P2;PMS_P1;PMS_P2;Temp;Humidity;BMP_temperature;BMP_pressure;BME280_temperature;BME280_humidity;BME280_pressure;Samples;Min_cycle;Max_cycle;Signal;HPM_P1;HPM_P2
2022/06/14 00:03:21;;;;;;;4.90;3.20;;;13.00;93.60;;;;;;5140023;27;20884;-78
2022/06/14 00:05:50;;;;;;;3.70;3.40;;;13.00;93.70;;;;;;5120780;27;20564;-81
2022/06/14 00:08:21;;;;;;;3.50;2.80;;;13.00;93.70;;;;;;5121238;27;20864;-82
2022/06/14 00:10:51;;;;;;;5.60;2.70;;;12.90;93.70;;;;;;5122603;27;20480;-79
2022/06/14 00:13:20;;;;;;;5.93;3.03;;;12.90;93.70;;;;;;5139182;27;20796;-78
2022/06/14 00:15:48;;;;;;;5.17;3.60;;;12.90;93.70;;;;;;5120669;27;20466;-80
2022/06/14 00:18:17;;;;;;;5.97;3.33;;;12.80;93.70;;;;;;5121055;27;20541;-79
2022/06/14 00:20:48;;;;;;;4.90;3.47;;;12.90;93.80;;;;;;5120332;27;20456;-79
2022/06/14 00:23:17;;;;;;;9.70;3.40;;;12.80;93.80;;;;;;5121081;27;20431;-80
2022/06/14 00:26:12;;;;;;;5.27;2.80;;;12.70;93.80;;;;;;5121683;27;20559;-78
2022/06/14 00:28:42;;;;;;;4.47;3.20;;;12.80;93.90;;;;;;5122150;27;20478;-80
2022/06/14 00:31:13;;;;;;;4.10;2.60;;;12.70;93.90;;;;;;5121567;27;20507;-78
2022/06/14 00:33:42;;;;;;;4.43;2.97;;;12.70;94.00;;;;;;5121227;27;20446;-80
2022/06/14 00:36:19;;;;;;;4.77;3.10;;;12.70;94.00;;;;;;5141346;27;20506;-78
2022/06/14 00:38:48;;;;;;;5.60;3.13;;;12.60;94.10;;;;;;5121279;27;20529;-79
2022/06/14 00:41:27;;;;;;;3.47;2.80;;;12.60;94.20;;;;;;5120865;27;20474;-80
2022/06/14 00:43:55;;;;;;;5.17;3.20;;;12.60;94.30;;;;;;5139307;27;20438;-79
2022/06/14 00:46:27;;;;;;;8.07;3.50;;;12.50;94.30;;;;;;5122712;27;20474;-78
2022/06/14 00:49:04;;;;;;;5.40;3.10;;;12.50;94.40;;;;;;5121840;27;20443;-80
2022/06/14 00:51:37;;;;;;;7.20;4.17;;;12.50;94.50;;;;;;5138328;27;20441;-80
2022/06/14 00:54:14;;;;;;;4.87;2.90;;;12.40;94.50;;;;;;5119212;27;20474;-80
2022/06/14 00:56:51;;;;;;;5.23;3.13;;;12.40;94.60;;;;;;5119963;27;20557;-81
2022/06/14 00:59:25;;;;;;;4.40;3.00;;;12.40;94.60;;;;;;5139091;27;20417;-80
2022/06/14 01:02:02;;;;;;;6.43;3.37;;;12.40;94.70;;;;;;5120805;27;20491;-79
2022/06/14 01:04:32;;;;;;;4.60;3.30;;;12.40;94.70;;;;;;5120138;27;20470;-80
2022/06/14 01:07:06;;;;;;;4.77;2.90;;;12.40;94.70;;;;;;5120048;27;20892;-80
2022/06/14 01:09:42;;;;;;;6.53;2.90;;;12.40;95.00;;;;;;5119507;27;20466;-81
2022/06/14 01:12:14;;;;;;;5.93;2.90;;;12.40;94.80;;;;;;5121087;27;20445;-80
2022/06/14 01:14:48;;;;;;;5.97;3.30;;;12.30;94.80;;;;;;5120265;27;20470;-80
2022/06/14 01:17:17;;;;;;;4.50;2.83;;;12.30;94.90;;;;;;5138431;27;20872;-80
2022/06/14 01:19:46;;;;;;;6.33;3.30;;;12.30;95.00;;;;;;5137954;27;20452;-79
2022/06/14 01:22:30;;;;;;;5.43;3.03;;;12.30;95.00;;;;;;5119620;27;20439;-79
2022/06/14 01:25:00;;;;;;;6.60;3.23;;;12.30;95.10;;;;;;5139255;27;20427;-78
2022/06/14 01:27:30;;;;;;;6.20;3.83;;;12.20;95.00;;;;;;5119929;27;20426;-81
2022/06/14 01:30:11;;;;;;;3.67;2.97;;;12.20;95.10;;;;;;5142471;27;20463;-81
2022/06/14 01:32:46;;;;;;;6.67;3.33;;;12.20;95.20;;;;;;5125556;27;20442;-81
2022/06/14 01:35:18;;;;;;;6.17;3.50;;;12.20;95.20;;;;;;5122804;27;20480;-81
2022/06/14 01:37:51;;;;;;;10.20;4.13;;;12.20;95.30;;;;;;5123176;27;20445;-80
2022/06/14 01:40:21;;;;;;;8.30;3.63;;;12.10;95.30;;;;;;5123807;27;20431;-80
2022/06/14 01:43:15;;;;;;;6.30;3.47;;;12.10;95.40;;;;;;5125346;27;20464;-81
2022/06/14 01:45:55;;;;;;;4.97;4.13;;;12.10;95.50;;;;;;5123527;27;20688;-79
2022/06/14 01:48:30;;;;;;;4.27;3.50;;;12.10;95.50;;;;;;5137134;27;20464;-80
2022/06/14 01:54:02;;;;;;;8.57;3.93;;;12.00;95.70;;;;;;5132981;27;20421;-79
2022/06/14 01:56:40;;;;;;;6.10;4.20;;;12.00;95.80;;;;;;5135873;27;20974;-80
2022/06/14 01:59:16;;;;;;;4.07;3.37;;;11.90;95.80;;;;;;5139056;27;20482;-79
2022/06/14 02:01:53;;;;;;;6.00;3.90;;;11.90;95.90;;;;;;5152424;27;20442;-80
2022/06/14 02:04:40;;;;;;;8.27;4.07;;;11.90;96.00;;;;;;5152635;27;20453;-80
2022/06/14 02:07:24;;;;;;;7.70;4.80;;;11.90;96.10;;;;;;5130360;27;20462;-79
2022/06/14 02:10:02;;;;;;;5.63;4.10;;;11.80;96.10;;;;;;5147076;27;20414;-80
2022/06/14 02:12:37;;;;;;;5.77;4.53;;;11.80;96.20;;;;;;5130356;27;20442;-81
2022/06/14 02:15:12;;;;;;;8.90;5.30;;;11.80;96.60;;;;;;5148477;27;20410;-80
2022/06/14 02:17:44;;;;;;;4.87;3.90;;;11.80;96.40;;;;;;5131055;27;20430;-81
2022/06/14 02:20:17;;;;;;;8.07;4.00;;;11.80;96.40;;;;;;5138122;28;20427;-81
2022/06/14 02:22:50;;;;;;;9.00;3.97;;;11.70;96.50;;;;;;5140796;28;20438;-80
2022/06/14 02:25:25;;;;;;;6.80;4.47;;;11.70;96.50;;;;;;5139143;28;20470;-80
2022/06/14 02:27:59;;;;;;;5.80;4.10;;;11.70;96.60;;;;;;5156521;28;20457;-80
2022/06/14 02:30:31;;;;;;;9.40;4.50;;;11.70;96.70;;;;;;5133472;28;20462;-81
2022/06/14 02:33:06;;;;;;;7.80;3.90;;;11.70;96.80;;;;;;5122041;28;20446;-79
2022/06/14 02:35:40;;;;;;;8.57;4.73;;;11.70;96.90;;;;;;5124257;28;20476;-79
2022/06/14 02:38:12;;;;;;;7.20;4.40;;;11.70;97.00;;;;;;5123901;28;20461;-81
2022/06/14 02:40:47;;;;;;;5.33;4.50;;;11.60;97.10;;;;;;5143190;28;20471;-79
2022/06/14 02:43:21;;;;;;;9.33;5.03;;;11.60;97.20;;;;;;5121927;28;20446;-79
2022/06/14 02:45:53;;;;;;;5.37;4.87;;;11.60;97.50;;;;;;5120965;28;20873;-81
2022/06/14 02:48:25;;;;;;;5.70;4.67;;;11.60;97.30;;;;;;5124560;28;20469;-79
2022/06/14 02:51:00;;;;;;;7.97;4.83;;;11.70;97.40;;;;;;5140673;28;20486;-80
2022/06/14 02:53:35;;;;;;;6.27;4.57;;;11.60;97.40;;;;;;5123202;28;20524;-79
2022/06/14 02:56:15;;;;;;;8.87;4.80;;;11.70;97.60;;;;;;5119833;28;20581;-80
2022/06/14 02:58:49;;;;;;;8.23;5.00;;;11.70;97.60;;;;;;5118894;28;20449;-80
2022/06/14 03:01:23;;;;;;;6.80;4.50;;;11.60;97.60;;;;;;5118666;28;20454;-81
2022/06/14 03:03:57;;;;;;;8.40;4.57;;;11.60;97.70;;;;;;5119171;28;20437;-79
2022/06/14 03:06:31;;;;;;;7.30;4.90;;;11.60;97.70;;;;;;5138130;28;20462;-79
2022/06/14 03:09:04;;;;;;;8.90;5.97;;;11.60;97.80;;;;;;5137143;28;20423;-79
2022/06/14 03:11:50;;;;;;;8.63;5.30;;;11.70;97.80;;;;;;5118408;28;20855;-82
2022/06/14 03:14:27;;;;;;;6.27;5.00;;;11.60;97.90;;;;;;5136663;28;20407;-81
2022/06/14 03:17:16;;;;;;;5.57;4.97;;;11.60;97.90;;;;;;5118234;27;21037;-81
2022/06/14 03:19:50;;;;;;;6.13;4.50;;;11.60;98.00;;;;;;5121833;27;20777;-80
2022/06/14 03:22:25;;;;;;;5.77;4.60;;;11.60;98.00;;;;;;5140320;27;20510;-80
2022/06/14 03:24:59;;;;;;;9.50;5.20;;;11.60;98.00;;;;;;5122202;27;20438;-80
2022/06/14 03:27:34;;;;;;;8.10;5.87;;;11.60;98.10;;;;;;5123360;27;20910;-80
2022/06/14 03:30:07;;;;;;;5.80;4.93;;;11.60;98.10;;;;;;5140874;27;20449;-80
2022/06/14 03:32:41;;;;;;;9.77;5.60;;;11.60;98.20;;;;;;5140567;27;20450;-80
2022/06/14 03:35:12;;;;;;;5.70;4.53;;;11.60;98.20;;;;;;5123106;27;20911;-81
2022/06/14 03:37:41;;;;;;;8.23;5.20;;;11.60;98.30;;;;;;5122537;27;20447;-80
2022/06/14 03:40:15;;;;;;;7.20;4.87;;;11.60;98.30;;;;;;5121478;27;20443;-81
2022/06/14 03:42:45;;;;;;;6.27;4.80;;;11.60;98.40;;;;;;5140302;27;20509;-80
2022/06/14 03:45:19;;;;;;;7.60;5.67;;;11.60;98.40;;;;;;5139962;27;20529;-81
2022/06/14 03:47:47;;;;;;;8.03;4.70;;;11.60;98.50;;;;;;5121792;27;20438;-81
2022/06/14 03:50:24;;;;;;;7.27;5.13;;;11.60;98.50;;;;;;5121609;27;20519;-81
2022/06/14 03:53:17;;;;;;;6.07;5.23;;;11.60;98.60;;;;;;5121779;27;20462;-79
2022/06/14 03:56:01;;;;;;;9.90;5.67;;;11.60;98.70;;;;;;5098161;27;20506;-79
2022/06/14 03:58:53;;;;;;;7.37;5.70;;;11.60;98.70;;;;;;5122044;27;20948;-80
2022/06/14 04:01:28;;;;;;;6.00;5.20;;;11.70;98.80;;;;;;5121392;27;20489;-78
2022/06/14 04:04:13;;;;;;;11.00;6.57;;;11.70;98.80;;;;;;5121449;27;21021;-79
2022/06/14 04:06:51;;;;;;;7.27;6.57;;;11.70;98.90;;;;;;5121425;27;20888;-80
2022/06/14 04:09:32;;;;;;;7.43;6.00;;;11.70;99.00;;;;;;5120821;27;21019;-79
2022/06/14 04:12:18;;;;;;;8.00;5.70;;;11.70;99.10;;;;;;5121722;27;20462;-79
2022/06/14 04:15:02;;;;;;;7.40;6.00;;;11.70;99.20;;;;;;5123267;27;20446;-78
2022/06/14 04:17:40;;;;;;;11.30;7.10;;;11.70;99.30;;;;;;5139687;27;20450;-81
2022/06/14 04:20:15;;;;;;;8.67;6.57;;;11.70;99.60;;;;;;5122096;27;20949;-79
2022/06/14 04:22:52;;;;;;;8.00;5.83;;;11.70;99.40;;;;;;5121714;27;20923;-79
2022/06/14 04:25:30;;;;;;;7.50;4.70;;;11.80;99.50;;;;;;5139398;27;20528;-79
2022/06/14 04:28:16;;;;;;;7.40;5.20;;;11.80;99.60;;;;;;5139453;27;20415;-79
2022/06/14 04:30:53;;;;;;;8.13;5.53;;;11.80;99.60;;;;;;5119797;27;20450;-79
2022/06/14 04:33:27;;;;;;;11.37;6.27;;;11.90;99.70;;;;;;5122102;27;20492;-80
2022/06/14 04:36:01;;;;;;;7.27;6.30;;;11.90;99.80;;;;;;5119952;27;20541;-80
2022/06/14 04:38:34;;;;;;;6.80;5.53;;;11.90;99.80;;;;;;5122262;27;20457;-80
2022/06/14 04:41:23;;;;;;;9.60;5.53;;;11.90;99.90;;;;;;5121174;27;20939;-79
2022/06/14 04:43:56;;;;;;;8.70;5.90;;;12.00;99.90;;;;;;5121890;27;20482;-78
2022/06/14 04:46:30;;;;;;;8.37;6.20;;;12.00;99.90;;;;;;5124340;27;20474;-81
2022/06/14 04:49:06;;;;;;;11.00;6.47;;;12.10;99.90;;;;;;5138895;27;20418;-81
2022/06/14 04:51:44;;;;;;;9.20;6.20;;;12.20;99.90;;;;;;5124919;27;20462;-78
2022/06/14 04:54:16;;;;;;;11.73;6.10;;;12.20;99.90;;;;;;5125073;27;20483;-78
2022/06/14 04:56:50;;;;;;;8.80;5.60;;;12.30;99.90;;;;;;5122921;27;20470;-79
2022/06/14 04:59:23;;;;;;;9.60;6.40;;;12.30;99.90;;;;;;5141897;27;20446;-80
2022/06/14 05:01:57;;;;;;;7.23;5.23;;;12.40;99.90;;;;;;5124321;27;20454;-78
2022/06/14 05:04:30;;;;;;;9.97;6.00;;;12.40;99.90;;;;;;5142553;27;20430;-78
2022/06/14 05:07:04;;;;;;;11.67;5.60;;;12.50;99.90;;;;;;5123511;27;20496;-80
2022/06/14 05:09:39;;;;;;;10.90;6.30;;;12.60;99.90;;;;;;5142191;27;20446;-81
2022/06/14 05:12:14;;;;;;;9.70;5.40;;;12.60;99.90;;;;;;5141733;27;20507;-81
2022/06/14 05:14:45;;;;;;;11.33;6.30;;;12.70;99.90;;;;;;5121506;27;20442;-80
2022/06/14 05:17:20;;;;;;;10.63;6.03;;;12.80;99.90;;;;;;5120857;27;20472;-80
2022/06/14 05:19:53;;;;;;;8.13;6.73;;;12.80;99.90;;;;;;5121840;27;20437;-80
2022/06/14 05:22:30;;;;;;;8.83;6.00;;;12.90;99.90;;;;;;5121414;27;20475;-79
2022/06/14 05:24:59;;;;;;;7.30;5.47;;;13.00;99.90;;;;;;5123592;27;20434;-80
2022/06/14 05:27:37;;;;;;;9.70;6.10;;;13.00;99.90;;;;;;5122869;27;20459;-79
2022/06/14 05:30:09;;;;;;;7.47;6.00;;;13.10;99.90;;;;;;5125901;27;20525;-79
2022/06/14 05:32:49;;;;;;;7.27;5.33;;;13.10;99.90;;;;;;5128254;27;20465;-79
2022/06/14 05:35:28;;;;;;;13.47;5.80;;;13.20;99.90;;;;;;5141257;27;20470;-81
2022/06/14 05:38:03;;;;;;;11.23;5.43;;;13.20;99.90;;;;;;5140010;27;20444;-80
2022/06/14 05:40:38;;;;;;;9.67;5.70;;;13.20;99.90;;;;;;5138768;28;20461;-79
2022/06/14 05:43:13;;;;;;;11.13;6.37;;;13.30;99.90;;;;;;5138140;27;20521;-80
2022/06/14 05:45:44;;;;;;;9.60;5.50;;;13.30;99.90;;;;;;5122793;27;20470;-80
2022/06/14 05:48:20;;;;;;;5.10;4.60;;;13.40;99.90;;;;;;5126961;27;20525;-81
2022/06/14 05:50:54;;;;;;;8.07;5.30;;;13.40;99.90;;;;;;5141222;27;20446;-80
2022/06/14 05:53:29;;;;;;;9.07;5.80;;;13.50;99.90;;;;;;5121673;27;20501;-78
2022/06/14 05:56:11;;;;;;;9.43;5.27;;;13.50;99.90;;;;;;5121024;27;20469;-78
2022/06/14 05:58:45;;;;;;;9.37;6.00;;;13.60;99.90;;;;;;5139860;27;20859;-81
2022/06/14 06:01:18;;;;;;;10.13;5.03;;;13.70;99.90;;;;;;5122234;27;20573;-80
2022/06/14 06:03:55;;;;;;;10.50;5.80;;;13.90;99.90;;;;;;5139454;27;20415;-80
2022/06/14 06:06:28;;;;;;;9.80;4.60;;;14.10;99.90;;;;;;5121343;27;20466;-78
2022/06/14 06:09:01;;;;;;;6.47;4.60;;;14.40;99.90;;;;;;5120296;27;20414;-81
2022/06/14 06:11:36;;;;;;;10.00;4.70;;;14.60;99.90;;;;;;5120895;27;20479;-78
2022/06/14 06:14:08;;;;;;;8.17;4.80;;;14.80;99.90;;;;;;5122004;27;20499;-80
2022/06/14 06:16:43;;;;;;;5.40;4.70;;;15.10;99.90;;;;;;5123353;28;20487;-79
2022/06/14 06:19:16;;;;;;;11.43;4.60;;;15.20;99.90;;;;;;5141310;27;20494;-78
2022/06/14 06:21:49;;;;;;;8.93;5.30;;;15.30;99.90;;;;;;5122551;28;20445;-79
2022/06/14 06:24:24;;;;;;;8.77;4.87;;;15.30;99.90;;;;;;5138774;27;20776;-81
2022/06/14 06:26:58;;;;;;;7.77;4.43;;;15.40;99.90;;;;;;5120607;28;20487;-80
2022/06/14 06:29:34;;;;;;;6.50;4.50;;;15.60;99.90;;;;;;5141397;28;20424;-81
2022/06/14 06:32:04;;;;;;;9.33;4.33;;;15.70;99.90;;;;;;5141537;28;20438;-82
2022/06/14 06:34:35;;;;;;;9.07;4.57;;;15.90;99.90;;;;;;5121889;28;20417;-81
2022/06/14 06:37:10;;;;;;;8.50;4.03;;;16.10;99.90;;;;;;5140260;28;20452;-79
2022/06/14 06:39:46;;;;;;;6.87;3.60;;;16.30;99.90;;;;;;5122066;28;20771;-81
2022/06/14 06:42:24;;;;;;;6.50;3.50;;;16.40;99.60;;;;;;5119530;28;20450;-79
2022/06/14 06:45:06;;;;;;;7.63;3.73;;;16.60;99.50;;;;;;5120833;28;20470;-81
2022/06/14 06:47:39;;;;;;;10.90;4.90;;;16.80;99.60;;;;;;5127577;28;20448;-83
2022/06/14 06:50:22;;;;;;;6.90;3.93;;;16.80;99.00;;;;;;5129339;28;20466;-82
2022/06/14 06:52:58;;;;;;;8.87;4.03;;;16.90;98.70;;;;;;5131303;27;20437;-80
2022/06/14 06:55:45;;;;;;;8.80;4.10;;;16.90;98.70;;;;;;5147066;27;20479;-81
2022/06/14 06:58:21;;;;;;;10.07;4.50;;;17.00;98.60;;;;;;5125602;27;20434;-82
2022/06/14 07:00:58;;;;;;;8.20;4.00;;;17.10;98.50;;;;;;5127297;27;20438;-81
2022/06/14 07:03:35;;;;;;;8.60;3.63;;;17.30;98.40;;;;;;5125399;27;20829;-80
2022/06/14 07:06:08;;;;;;;8.43;3.97;;;17.40;98.30;;;;;;5125157;27;20432;-79
2022/06/14 07:08:43;;;;;;;8.40;3.50;;;17.50;98.10;;;;;;5125957;27;20453;-79
2022/06/14 07:11:15;;;;;;;6.53;3.50;;;17.40;97.90;;;;;;5124020;27;20417;-80
2022/06/14 07:13:53;;;;;;;9.30;3.30;;;17.50;97.90;;;;;;5143026;27;20453;-80
2022/06/14 07:16:28;;;;;;;6.57;3.43;;;17.70;98.00;;;;;;5123942;27;20436;-79
2022/06/14 07:19:20;;;;;;;7.40;4.00;;;18.00;97.80;;;;;;5122876;27;20537;-78
2022/06/14 07:22:00;;;;;;;6.73;3.47;;;18.00;97.40;;;;;;5143125;27;20517;-78
2022/06/14 07:24:36;;;;;;;7.90;3.50;;;18.00;97.30;;;;;;5122775;27;20413;-78
2022/06/14 07:27:27;;;;;;;7.50;3.37;;;17.80;97.10;;;;;;5143731;27;20907;-79
2022/06/14 07:30:06;;;;;;;10.53;2.70;;;17.80;97.00;;;;;;5121530;27;20823;-78
2022/06/14 07:32:40;;;;;;;5.13;2.50;;;17.80;96.90;;;;;;5120746;27;20450;-77
2022/06/14 07:35:09;;;;;;;6.63;2.50;;;18.00;97.00;;;;;;5122281;27;20445;-82
2022/06/14 07:37:43;;;;;;;5.83;2.20;;;18.00;96.80;;;;;;5122477;27;20451;-80
2022/06/14 07:40:36;;;;;;;5.23;2.30;;;18.00;96.60;;;;;;5123444;27;20466;-80
2022/06/14 07:43:07;;;;;;;5.87;2.70;;;18.00;96.40;;;;;;5122702;27;20443;-79
2022/06/14 07:45:39;;;;;;;7.00;3.73;;;18.00;96.20;;;;;;5122496;27;20545;-81
2022/06/14 07:48:13;;;;;;;8.10;2.20;;;18.20;96.10;;;;;;5122717;27;20448;-82
2022/06/14 07:50:45;;;;;;;7.07;2.57;;;18.30;96.00;;;;;;5141230;27;20517;-81
2022/06/14 07:53:21;;;;;;;6.63;3.10;;;18.30;95.90;;;;;;5122820;27;20507;-79
2022/06/14 07:55:54;;;;;;;2.47;1.87;;;18.20;95.40;;;;;;5140680;27;20476;-79
2022/06/14 07:58:30;;;;;;;5.80;2.97;;;18.10;95.30;;;;;;5123163;27;20438;-78
2022/06/14 08:01:10;;;;;;;5.90;2.73;;;18.10;95.00;;;;;;5122773;27;20439;-79
2022/06/14 08:03:44;;;;;;;5.03;2.20;;;18.10;95.00;;;;;;5139867;27;20429;-80
2022/06/14 08:06:16;;;;;;;6.37;2.33;;;18.20;94.90;;;;;;5122054;27;20494;-82
2022/06/14 08:08:51;;;;;;;5.63;2.43;;;18.20;94.90;;;;;;5140088;27;20434;-78
2022/06/14 08:11:23;;;;;;;6.50;3.10;;;18.20;94.90;;;;;;5122226;27;20426;-79
2022/06/14 08:13:56;;;;;;;7.37;2.80;;;18.10;94.80;;;;;;5123221;27;20467;-77
2022/06/14 08:16:26;;;;;;;4.87;2.23;;;18.10;94.70;;;;;;5121057;27;20506;-77
2022/06/14 08:19:00;;;;;;;5.80;2.20;;;18.10;94.60;;;;;;5141289;27;20438;-78
2022/06/14 08:21:34;;;;;;;8.80;3.40;;;18.00;94.40;;;;;;5121098;27;20434;-78
2022/06/14 08:24:09;;;;;;;6.03;2.13;;;18.00;94.30;;;;;;5121031;27;20541;-76
2022/06/14 08:26:44;;;;;;;7.80;2.90;;;17.90;94.10;;;;;;5120108;27;20454;-77
2022/06/14 08:29:16;;;;;;;6.57;2.13;;;17.90;94.10;;;;;;5140296;27;20502;-77
2022/06/14 08:31:51;;;;;;;5.03;2.60;;;17.90;94.10;;;;;;5120507;27;20491;-77
2022/06/14 08:34:33;;;;;;;5.17;2.23;;;18.00;94.10;;;;;;5139336;27;20940;-78
2022/06/14 08:37:09;;;;;;;4.97;2.23;;;18.00;94.10;;;;;;5139622;27;20541;-78
2022/06/14 08:39:44;;;;;;;7.83;2.47;;;18.00;94.10;;;;;;5119560;27;20466;-76
2022/06/14 08:42:20;;;;;;;6.93;2.20;;;18.00;94.00;;;;;;5118903;27;20547;-77
2022/06/14 08:44:55;;;;;;;7.53;3.63;;;18.00;94.00;;;;;;5138649;27;20418;-77
2022/06/14 08:47:45;;;;;;;8.97;2.23;;;18.00;93.80;;;;;;5139108;27;20507;-77
2022/06/14 08:50:38;;;;;;;6.23;2.37;;;18.00;93.70;;;;;;5119612;27;20485;-78
2022/06/14 08:53:42;;;;;;;6.33;2.70;;;18.00;93.80;;;;;;5119691;27;20484;-78
2022/06/14 08:56:22;;;;;;;4.30;2.40;;;17.90;93.70;;;;;;5120480;27;20455;-79
2022/06/14 08:59:31;;;;;;;6.30;2.83;;;17.90;93.60;;;;;;5138152;27;20455;-76
2022/06/14 09:02:40;;;;;;;5.70;2.97;;;18.00;93.40;;;;;;5119546;27;20556;-78
2022/06/14 09:05:39;;;;;;;5.20;2.23;;;18.10;93.50;;;;;;5085498;27;20450;-77
2022/06/14 09:08:26;;;;;;;6.97;2.20;;;18.20;93.20;;;;;;5083480;27;20451;-77
2022/06/14 09:11:18;;;;;;;5.47;2.17;;;18.20;93.20;;;;;;5138556;27;20530;-78
2022/06/14 09:14:22;;;;;;;5.67;2.13;;;18.30;93.10;;;;;;5138338;27;20455;-77
2022/06/14 09:17:10;;;;;;;5.33;2.30;;;18.30;92.80;;;;;;5131359;27;21082;-77
2022/06/14 09:20:03;;;;;;;6.43;2.23;;;18.30;92.60;;;;;;5137153;27;20446;-76
2022/06/14 09:22:37;;;;;;;4.90;2.30;;;18.40;92.70;;;;;;5118637;27;20843;-77
2022/06/14 09:25:40;;;;;;;5.43;2.30;;;18.50;92.60;;;;;;5118176;27;20466;-77
2022/06/14 09:28:26;;;;;;;6.30;2.10;;;18.70;92.70;;;;;;5136362;27;20414;-77
2022/06/14 09:31:26;;;;;;;7.50;2.37;;;18.90;92.80;;;;;;5137804;27;20433;-76
2022/06/14 09:34:17;;;;;;;5.00;1.80;;;19.10;92.80;;;;;;5136958;27;20422;-77
2022/06/14 09:37:31;;;;;;;4.80;2.60;;;19.10;92.40;;;;;;5119907;27;20463;-80
2022/06/14 09:40:38;;;;;;;4.00;2.43;;;19.10;92.20;;;;;;5083084;27;20454;-77
2022/06/14 09:43:44;;;;;;;7.17;2.67;;;18.90;91.80;;;;;;5137047;27;20462;-77
2022/06/14 09:47:04;;;;;;;9.80;2.43;;;18.90;91.70;;;;;;5083967;27;20507;-77
2022/06/14 09:50:17;;;;;;;4.83;2.07;;;19.10;91.80;;;;;;5137964;27;20411;-79
2022/06/14 09:53:15;;;;;;;3.90;1.97;;;19.30;91.90;;;;;;5104210;27;20950;-77
2022/06/14 09:56:26;;;;;;;3.57;1.77;;;19.30;91.80;;;;;;5116270;27;20482;-76
2022/06/14 09:59:37;;;;;;;2.70;1.70;;;19.30;91.10;;;;;;5118018;27;20448;-77
2022/06/14 10:02:17;;;;;;;4.63;1.60;;;19.30;91.20;;;;;;5088577;27;20471;-76
2022/06/14 10:05:12;;;;;;;3.80;1.80;;;19.30;91.30;;;;;;5118302;27;20464;-77
2022/06/14 10:07:53;;;;;;;3.83;1.77;;;19.30;91.20;;;;;;5118084;27;20477;-77
2022/06/14 10:10:33;;;;;;;5.70;2.10;;;19.20;91.00;;;;;;5117576;27;20442;-77
2022/06/14 10:13:43;;;;;;;3.60;2.00;;;19.10;90.90;;;;;;5119565;27;20470;-77
2022/06/14 10:16:20;;;;;;;4.90;2.37;;;19.30;91.30;;;;;;5136182;27;21010;-77
2022/06/14 10:19:15;;;;;;;4.90;2.17;;;19.50;91.30;;;;;;5135530;27;20434;-77
2022/06/14 10:21:50;;;;;;;5.27;1.77;;;19.70;91.10;;;;;;5135079;27;20514;-76
2022/06/14 10:24:25;;;;;;;3.43;1.87;;;19.80;91.10;;;;;;5116494;27;20521;-76
2022/06/14 10:30:22;;;;;;;4.77;1.83;;;20.10;90.60;;;;;;5098196;28;20530;-76
2022/06/14 10:33:24;;;;;;;3.70;1.90;;;20.10;90.60;;;;;;5116103;28;20811;-77
2022/06/14 10:36:09;;;;;;;3.10;1.90;;;20.00;90.30;;;;;;5115992;28;20478;-76
2022/06/14 10:39:17;;;;;;;3.83;1.83;;;20.00;90.30;;;;;;5118604;28;20431;-77
2022/06/14 10:41:55;;;;;;;4.57;2.13;;;19.90;90.20;;;;;;5100182;28;20447;-76
2022/06/14 10:44:30;;;;;;;3.47;1.87;;;19.90;90.30;;;;;;5135541;28;20428;-77
2022/06/14 10:47:07;;;;;;;5.47;1.80;;;19.80;90.30;;;;;;5136029;28;20842;-76
2022/06/14 10:50:06;;;;;;;3.57;1.77;;;19.80;90.40;;;;;;5117883;28;20440;-77
2022/06/14 10:52:52;;;;;;;6.50;2.37;;;19.90;90.30;;;;;;5136413;28;20764;-77
2022/06/14 10:55:59;;;;;;;4.00;2.00;;;20.00;90.40;;;;;;5117666;28;20500;-77
2022/06/14 10:59:03;;;;;;;5.33;1.80;;;20.10;90.40;;;;;;5136371;28;20521;-78
2022/06/14 11:01:44;;;;;;;5.83;2.30;;;20.10;90.30;;;;;;5120259;27;20536;-77
2022/06/14 11:04:19;;;;;;;3.17;1.80;;;20.10;90.30;;;;;;5117488;28;20434;-77
2022/06/14 11:07:16;;;;;;;6.97;2.13;;;20.10;90.30;;;;;;5118279;28;20469;-78
2022/06/14 11:10:10;;;;;;;5.47;1.80;;;20.20;90.30;;;;;;5120964;28;20510;-77
2022/06/14 11:12:51;;;;;;;4.73;2.23;;;20.20;90.30;;;;;;5117116;28;20493;-79
2022/06/14 11:15:27;;;;;;;4.67;1.90;;;20.20;90.10;;;;;;5136250;28;21043;-77
2022/06/14 11:18:09;;;;;;;4.87;2.07;;;20.30;90.10;;;;;;5117947;28;21038;-77
2022/06/14 11:20:49;;;;;;;6.13;2.23;;;20.40;90.10;;;;;;5134489;28;20429;-76
2022/06/14 11:23:24;;;;;;;3.90;2.27;;;20.50;90.00;;;;;;5135993;28;20916;-77
2022/06/14 11:26:02;;;;;;;6.47;2.00;;;20.50;89.70;;;;;;5136170;28;20548;-77
2022/06/14 11:28:36;;;;;;;3.13;1.90;;;20.50;89.20;;;;;;5137695;28;20419;-79
2022/06/14 11:31:12;;;;;;;3.43;2.00;;;20.50;89.20;;;;;;5137833;28;20502;-78
2022/06/14 11:34:07;;;;;;;6.20;2.27;;;20.40;89.10;;;;;;5137080;28;20501;-78
2022/06/14 11:36:51;;;;;;;3.83;1.87;;;20.40;89.20;;;;;;5117971;28;20894;-77
2022/06/14 11:39:31;;;;;;;3.50;2.10;;;20.40;89.50;;;;;;5118824;27;20495;-78
2022/06/14 11:42:06;;;;;;;4.10;2.07;;;20.40;89.30;;;;;;5119980;27;20898;-76
2022/06/14 11:44:50;;;;;;;6.00;2.07;;;20.40;89.00;;;;;;5140037;27;20509;-76
2022/06/14 11:47:28;;;;;;;4.23;2.20;;;20.40;88.60;;;;;;5121710;27;20458;-77
2022/06/14 11:50:06;;;;;;;4.40;2.17;;;20.40;88.80;;;;;;5141457;27;20457;-77
2022/06/14 11:53:03;;;;;;;3.33;1.93;;;20.60;89.20;;;;;;5139925;27;20445;-78
2022/06/14 11:55:39;;;;;;;5.10;2.13;;;20.70;89.40;;;;;;5126161;27;20474;-78
2022/06/14 11:58:13;;;;;;;3.00;1.80;;;20.80;89.40;;;;;;5147325;27;20840;-79
2022/06/14 12:01:00;;;;;;;3.10;1.93;;;20.80;88.90;;;;;;5131176;27;21009;-78
2022/06/14 12:04:04;;;;;;;4.60;2.50;;;20.80;88.80;;;;;;5144573;27;20451;-77
2022/06/14 12:06:41;;;;;;;4.83;2.40;;;20.80;88.30;;;;;;5117573;27;20557;-78
2022/06/14 12:09:31;;;;;;;3.87;1.93;;;20.80;88.30;;;;;;5124420;27;20442;-78
2022/06/14 12:12:07;;;;;;;4.27;1.77;;;20.80;88.40;;;;;;5126619;27;20475;-78
2022/06/14 12:15:00;;;;;;;2.90;1.70;;;20.80;88.50;;;;;;5129693;27;20530;-77
2022/06/14 12:17:32;;;;;;;5.00;1.93;;;20.80;88.20;;;;;;5124350;27;20439;-78
2022/06/14 12:20:07;;;;;;;3.80;2.37;;;20.80;88.00;;;;;;5145554;27;20482;-78
2022/06/14 12:22:50;;;;;;;6.37;1.63;;;20.80;87.80;;;;;;5125888;27;20462;-77
2022/06/14 12:28:17;;;;;;;7.00;1.90;;;21.10;88.20;;;;;;5131286;27;20446;-79
2022/06/14 12:30:52;;;;;;;5.70;1.63;;;21.20;88.00;;;;;;5130139;27;20489;-77
2022/06/14 12:33:30;;;;;;;4.33;1.67;;;21.20;87.70;;;;;;5129186;27;20427;-78
2022/06/14 12:36:08;;;;;;;5.20;1.83;;;21.20;88.00;;;;;;5126053;27;20466;-78
2022/06/14 12:38:41;;;;;;;3.97;1.63;;;21.10;87.50;;;;;;5144157;27;20433;-78
2022/06/14 12:41:16;;;;;;;4.27;1.80;;;21.10;87.60;;;;;;5129830;27;20451;-79
2022/06/14 12:43:58;;;;;;;4.17;1.87;;;21.10;87.70;;;;;;5146023;27;20513;-77
2022/06/14 12:46:33;;;;;;;4.40;1.90;;;21.10;87.60;;;;;;5132349;27;20462;-79
2022/06/14 12:49:08;;;;;;;4.70;1.70;;;21.00;87.60;;;;;;5126728;27;20437;-78
2022/06/14 12:51:46;;;;;;;3.43;1.60;;;21.00;87.50;;;;;;5127853;27;20961;-78
2022/06/14 12:54:19;;;;;;;4.03;2.00;;;21.00;87.30;;;;;;5144631;27;20422;-79
2022/06/14 12:56:54;;;;;;;3.60;1.93;;;21.00;87.40;;;;;;5124181;27;20466;-79
2022/06/14 12:59:30;;;;;;;2.83;1.80;;;21.00;87.80;;;;;;5142150;27;20422;-78
2022/06/14 13:02:14;;;;;;;2.83;1.60;;;21.00;87.00;;;;;;5144145;27;20470;-78
2022/06/14 13:04:48;;;;;;;3.80;1.60;;;21.00;86.90;;;;;;5123118;27;20442;-79
2022/06/14 13:07:44;;;;;;;6.60;2.00;;;21.00;87.00;;;;;;5139477;27;20460;-78
2022/06/14 13:10:37;;;;;;;4.73;2.50;;;21.00;86.70;;;;;;5119428;27;20438;-79
2022/06/14 13:13:27;;;;;;;4.20;1.70;;;21.00;86.60;;;;;;5142806;27;20430;-80
2022/06/14 13:16:02;;;;;;;4.37;2.40;;;21.00;86.70;;;;;;5113408;27;20474;-78
2022/06/14 13:18:46;;;;;;;2.63;1.80;;;21.00;86.70;;;;;;5120849;27;20427;-79
2022/06/14 13:21:23;;;;;;;4.43;1.50;;;21.00;86.70;;;;;;5138316;27;20438;-77
2022/06/14 13:24:02;;;;;;;3.30;1.50;;;21.00;86.70;;;;;;5121544;27;20498;-77
2022/06/14 13:26:51;;;;;;;3.77;1.50;;;21.00;86.60;;;;;;5140941;27;20477;-79
2022/06/14 13:29:47;;;;;;;5.83;1.70;;;21.00;86.70;;;;;;5139408;27;20446;-79
2022/06/14 13:32:37;;;;;;;4.13;1.57;;;21.10;86.70;;;;;;5121245;27;21004;-78
2022/06/14 13:35:30;;;;;;;5.00;1.80;;;21.10;86.70;;;;;;5113635;27;20467;-78
2022/06/14 13:38:03;;;;;;;4.47;1.80;;;21.20;86.70;;;;;;5122758;27;20534;-78
2022/06/14 13:40:38;;;;;;;3.50;1.60;;;21.20;86.60;;;;;;5120908;27;20492;-76
2022/06/14 13:43:20;;;;;;;2.83;1.80;;;21.20;86.10;;;;;;5138467;27;20447;-77
2022/06/14 13:45:56;;;;;;;5.57;1.70;;;21.20;86.00;;;;;;5121377;27;20904;-77
2022/06/14 13:48:30;;;;;;;5.37;1.57;;;21.10;86.10;;;;;;5139822;27;20422;-78
2022/06/14 13:51:12;;;;;;;3.70;1.57;;;21.20;86.20;;;;;;5120090;27;20430;-78
2022/06/14 13:53:49;;;;;;;3.60;1.73;;;21.20;86.00;;;;;;5119355;27;20871;-78
2022/06/14 13:56:21;;;;;;;4.30;1.80;;;21.30;85.60;;;;;;5119978;27;20640;-79
2022/06/14 13:58:54;;;;;;;2.80;2.50;;;21.30;85.30;;;;;;5139778;27;20436;-78